Time;durP1;ratioP1;P1;durP2;ratioP2;P2;SDS_P1;SDS_P2;PMS_P1;PMS_P2;Temp;Humidity;BMP_temperature;BMP_pressure;BME280_temperature;BME280_humidity;BME280_pressure;Samples;Min_cycle;Max_cycle;Signal;HPM_P1;HPM_P2
2022/10/18 03:27:48;;;;;;;302.05;60.15;;;15.30;99.90;;;;;;6241240;22;20051;-92
2022/10/18 03:31:26;;;;;;;;;;;;;;;;;;;;;
2022/10/18 06:20:12;;;;;;;42.95;28.35;;;19.20;99.90;;;;;;6235922;22;20028;-92
2022/10/18 06:22:38;;;;;;;35.75;26.45;;;19.20;99.90;;;;;;6167442;23;20025;-93
2022/10/18 06:25:06;;;;;;;37.33;28.17;;;19.20;99.90;;;;;;6167896;23;20008;-93
2022/10/18 06:27:34;;;;;;;40.08;29.45;;;19.30;99.90;;;;;;6167464;23;20009;-93
2022/10/18 06:30:00;;;;;;;39.05;30.50;;;19.30;99.90;;;;;;6167454;23;20000;-93
2022/10/18 06:32:27;;;;;;;37.92;29.83;;;19.40;99.90;;;;;;6169164;23;20009;-92
2022/10/18 06:34:54;;;;;;;37.20;32.25;;;19.40;99.90;;;;;;6171287;23;20438;-92
2022/10/18 06:37:20;;;;;;;35.35;30.75;;;19.60;99.90;;;;;;6169830;23;20447;-92
2022/10/18 06:39:47;;;;;;;44.65;35.10;;;19.80;99.90;;;;;;6170223;23;20030;-93
2022/10/18 06:42:14;;;;;;;49.53;36.97;;;20.00;99.90;;;;;;6167664;23;20022;-91
2022/10/18 06:44:40;;;;;;;39.08;34.17;;;20.20;99.90;;;;;;6167496;23;20007;-93
2022/10/18 06:47:07;;;;;;;39.33;35.03;;;20.50;99.90;;;;;;6166937;23;20059;-92
2022/10/18 06:49:34;;;;;;;39.80;34.55;;;20.80;99.90;;;;;;6167069;23;20004;-91
2022/10/18 06:52:00;;;;;;;41.22;37.05;;;21.00;99.90;;;;;;6167392;23;20420;-92
2022/10/18 06:54:43;;;;;;;39.05;34.97;;;21.20;99.90;;;;;;6167107;23;20068;-95
2022/10/18 06:57:10;;;;;;;42.53;35.15;;;21.40;99.90;;;;;;6167375;23;20008;-92
2022/10/18 06:59:37;;;;;;;39.35;34.15;;;21.30;99.90;;;;;;6166928;23;20005;-92
2022/10/18 07:02:04;;;;;;;43.35;37.80;;;21.30;99.90;;;;;;6167379;23;20020;-94
2022/10/18 07:12:39;;;;;;;46.63;37.70;;;22.30;99.90;;;;;;6251698;22;20158;-94
2022/10/18 07:15:16;;;;;;;48.25;37.97;;;22.30;99.90;;;;;;6221878;23;20054;-93
2022/10/18 07:17:52;;;;;;;55.83;39.90;;;22.30;99.90;;;;;;6199924;23;20095;-93
2022/10/18 07:20:19;;;;;;;49.35;37.35;;;22.10;99.90;;;;;;6222121;23;20041;-94
2022/10/18 07:22:46;;;;;;;48.40;36.53;;;22.00;99.90;;;;;;6197565;23;20027;-93
2022/10/18 07:25:19;;;;;;;50.88;36.58;;;22.00;99.90;;;;;;6220845;23;19996;-93
2022/10/18 07:27:46;;;;;;;51.58;36.42;;;21.60;99.90;;;;;;6198122;23;20008;-93
2022/10/18 07:30:13;;;;;;;51.55;35.55;;;21.50;99.90;;;;;;6197221;23;20004;-92
2022/10/18 07:33:04;;;;;;;44.70;34.97;;;21.70;99.90;;;;;;6196915;23;20478;-95
2022/10/18 07:35:45;;;;;;;51.85;36.53;;;21.80;99.90;;;;;;6223056;23;20012;-92
2022/10/18 07:38:28;;;;;;;46.63;35.28;;;22.00;99.90;;;;;;6200492;23;20004;-92
2022/10/18 07:41:00;;;;;;;55.63;36.35;;;22.00;99.90;;;;;;6203223;23;20008;-93
2022/10/18 07:43:59;;;;;;;40.17;32.35;;;21.80;99.90;;;;;;6202823;23;20016;-94
2022/10/18 07:46:49;;;;;;;43.45;32.03;;;21.70;99.90;;;;;;6207021;23;20082;-93
2022/10/18 07:49:15;;;;;;;47.15;33.42;;;21.80;99.90;;;;;;6204952;23;20035;-93
2022/10/18 07:51:42;;;;;;;47.83;34.97;;;21.70;99.90;;;;;;6225949;23;20111;-91
2022/10/18 07:54:23;;;;;;;38.97;30.00;;;21.60;99.90;;;;;;6200631;23;20030;-91
2022/10/18 07:56:53;;;;;;;39.42;30.67;;;21.60;99.90;;;;;;6225508;23;20090;-93
2022/10/18 07:59:32;;;;;;;40.92;31.08;;;21.20;99.90;;;;;;6200529;23;20008;-93
2022/10/18 08:02:04;;;;;;;42.70;29.30;;;21.10;99.90;;;;;;6198675;23;20016;-91
2022/10/18 08:04:30;;;;;;;38.65;27.40;;;21.20;99.90;;;;;;6196887;23;20012;-92
2022/10/18 08:07:00;;;;;;;45.10;30.90;;;21.30;99.90;;;;;;6196485;23;20000;-91
2022/10/18 08:09:26;;;;;;;43.92;29.52;;;21.40;99.90;;;;;;6196337;23;20008;-91
2022/10/18 08:11:53;;;;;;;41.08;28.58;;;21.60;99.90;;;;;;6196484;23;20019;-92
2022/10/18 08:14:19;;;;;;;41.08;30.50;;;21.70;99.90;;;;;;6196721;23;20018;-92
2022/10/18 08:16:46;;;;;;;37.00;27.33;;;21.60;99.90;;;;;;6197467;23;20004;-93
2022/10/18 08:19:15;;;;;;;40.90;28.92;;;21.50;99.90;;;;;;6205493;23;20008;-92
2022/10/18 08:21:49;;;;;;;29.75;25.65;;;21.50;99.90;;;;;;6231842;23;20015;-94
2022/10/18 08:24:16;;;;;;;32.05;25.55;;;21.30;99.90;;;;;;6199518;23;20031;-94
2022/10/18 08:26:55;;;;;;;30.80;25.52;;;21.50;99.90;;;;;;6199349;23;20004;-93
2022/10/18 08:29:26;;;;;;;30.77;24.65;;;21.40;99.90;;;;;;6202210;23;20074;-93
2022/10/18 08:31:52;;;;;;;32.80;25.45;;;21.50;99.90;;;;;;6161423;23;20042;-92
2022/10/18 08:34:19;;;;;;;28.38;25.23;;;21.50;99.90;;;;;;6203599;23;20008;-92
2022/10/18 08:36:46;;;;;;;31.63;24.77;;;21.50;99.90;;;;;;6227076;23;20008;-93
2022/10/18 08:39:13;;;;;;;28.90;25.80;;;21.40;99.90;;;;;;6200075;23;20008;-92
2022/10/18 08:42:24;;;;;;;33.15;24.67;;;21.40;99.90;;;;;;6234250;23;20046;-93
2022/10/18 08:44:52;;;;;;;28.13;25.05;;;21.60;99.90;;;;;;6221082;23;20034;-92
2022/10/18 08:47:29;;;;;;;27.95;24.95;;;21.70;99.90;;;;;;6210156;23;20024;-92
2022/10/18 08:50:19;;;;;;;33.17;25.63;;;21.70;99.90;;;;;;6238596;23;20008;-92
2022/10/18 08:53:10;;;;;;;30.65;25.77;;;21.80;99.90;;;;;;6240185;23;20040;-93
2022/10/18 08:55:51;;;;;;;29.65;26.33;;;21.90;99.90;;;;;;6219627;23;20027;-91
2022/10/18 08:58:32;;;;;;;33.95;25.98;;;22.10;99.90;;;;;;6243454;23;20004;-92
2022/10/18 09:01:17;;;;;;;31.90;26.25;;;22.10;99.90;;;;;;6216134;23;20009;-92
2022/10/18 09:04:34;;;;;;;28.63;25.27;;;22.20;99.90;;;;;;6204870;23;20004;-93
2022/10/18 09:07:19;;;;;;;29.90;23.80;;;22.10;99.90;;;;;;6236589;23;20018;-93
2022/10/18 09:10:06;;;;;;;34.13;26.42;;;22.30;99.90;;;;;;6213278;23;20066;-91
2022/10/18 09:12:57;;;;;;;27.13;24.23;;;22.40;99.90;;;;;;6200182;22;20024;-93
2022/10/18 09:15:54;;;;;;;29.80;25.85;;;22.40;99.90;;;;;;6098150;23;20037;-92
2022/10/18 09:18:53;;;;;;;25.83;22.77;;;22.20;99.90;;;;;;6119246;23;20381;-92
2022/10/18 09:21:50;;;;;;;27.65;24.33;;;22.10;99.90;;;;;;6077174;23;20337;-93
2022/10/18 09:24:33;;;;;;;25.80;23.30;;;22.30;99.90;;;;;;6049808;23;20132;-93
2022/10/18 09:27:28;;;;;;;28.58;24.27;;;22.30;99.90;;;;;;6054657;23;20013;-93
2022/10/18 09:30:30;;;;;;;25.58;23.17;;;22.20;99.90;;;;;;6081775;23;20011;-93
2022/10/18 09:33:24;;;;;;;25.17;22.58;;;22.30;99.90;;;;;;6086649;23;20010;-93
2022/10/18 09:36:04;;;;;;;26.33;23.73;;;22.50;99.90;;;;;;6058736;23;20007;-93
2022/10/18 09:39:12;;;;;;;27.38;24.38;;;22.40;99.90;;;;;;6076697;23;20011;-93
2022/10/18 09:42:05;;;;;;;28.73;23.63;;;22.40;99.90;;;;;;6044794;23;20018;-92
2022/10/18 09:44:50;;;;;;;25.73;23.27;;;22.40;99.90;;;;;;6048756;23;20025;-93
2022/10/18 09:47:34;;;;;;;25.20;22.65;;;22.40;99.90;;;;;;6072800;23;20015;-92
2022/10/18 09:50:23;;;;;;;25.90;22.83;;;22.40;99.90;;;;;;6074528;23;20006;-93
2022/10/18 09:53:11;;;;;;;23.90;21.40;;;22.50;99.90;;;;;;6159199;23;20008;-92
2022/10/18 09:56:01;;;;;;;21.02;19.13;;;22.50;99.90;;;;;;6193619;23;20091;-93
2022/10/18 09:58:52;;;;;;;21.65;19.42;;;22.50;99.90;;;;;;6191676;23;20087;-93
2022/10/18 10:01:28;;;;;;;22.02;19.92;;;22.60;99.90;;;;;;6216251;23;20059;-93
2022/10/18 10:03:55;;;;;;;22.48;20.20;;;22.70;99.90;;;;;;6190679;23;20074;-94
2022/10/18 10:06:29;;;;;;;24.95;20.17;;;22.60;99.90;;;;;;6190713;23;20008;-93
2022/10/18 10:09:05;;;;;;;24.08;21.67;;;22.60;99.90;;;;;;6190437;23;20019;-93
2022/10/18 10:11:32;;;;;;;21.65;19.40;;;22.60;99.90;;;;;;6190312;23;20514;-92
2022/10/18 10:14:14;;;;;;;21.67;19.58;;;22.60;99.90;;;;;;6190118;23;20012;-93
2022/10/18 10:16:51;;;;;;;21.80;19.83;;;22.70;99.90;;;;;;6190791;23;20009;-94
2022/10/18 10:19:26;;;;;;;21.58;19.38;;;22.60;99.90;;;;;;6190474;23;20000;-93
2022/10/18 10:22:13;;;;;;;20.70;18.60;;;22.80;99.90;;;;;;6191875;23;20443;-94
2022/10/18 10:24:48;;;;;;;21.75;19.48;;;22.90;99.90;;;;;;6190579;23;20386;-93
2022/10/18 10:27:20;;;;;;;22.17;19.92;;;22.80;99.90;;;;;;6192498;23;20063;-93
2022/10/18 10:29:50;;;;;;;20.75;18.58;;;22.90;99.90;;;;;;6195034;23;20005;-93
2022/10/18 10:32:21;;;;;;;21.05;18.58;;;23.00;99.90;;;;;;6191372;23;20016;-93
2022/10/18 10:34:49;;;;;;;20.92;18.52;;;23.20;99.90;;;;;;6190881;23;20439;-93
2022/10/18 10:37:27;;;;;;;23.20;18.88;;;23.30;99.90;;;;;;6193433;23;20032;-92
2022/10/18 10:40:25;;;;;;;18.52;16.92;;;23.20;99.90;;;;;;6191048;23;20044;-94
2022/10/18 10:42:57;;;;;;;19.48;17.48;;;22.90;99.90;;;;;;6193206;23;20044;-93
2022/10/18 10:45:27;;;;;;;19.45;17.83;;;22.80;99.90;;;;;;6192298;23;20000;-93
2022/10/18 10:48:06;;;;;;;20.23;18.23;;;22.90;99.90;;;;;;6193053;23;20064;-91
2022/10/18 10:50:51;;;;;;;20.60;18.60;;;23.00;99.90;;;;;;6192632;23;20001;-94
2022/10/18 10:53:41;;;;;;;19.30;17.55;;;22.90;99.90;;;;;;6194253;23;20004;-93
2022/10/18 10:56:28;;;;;;;18.98;17.27;;;22.90;99.90;;;;;;6187788;23;20051;-95
2022/10/18 11:03:18;;;;;;;19.55;17.67;;;22.80;99.90;;;;;;6002535;24;20028;-93
2022/10/18 11:10:02;;;;;;;21.50;19.40;;;22.90;99.90;;;;;;5970365;24;20028;-93
2022/10/18 12:52:38;;;;;;;20.60;18.88;;;22.80;99.90;;;;;;6230271;22;20103;-92
2022/10/18 12:55:05;;;;;;;21.80;19.88;;;22.80;99.90;;;;;;6198117;23;20004;-94
2022/10/18 12:57:51;;;;;;;19.80;18.00;;;22.70;99.90;;;;;;6202266;23;20068;-93
2022/10/18 13:01:10;;;;;;;18.98;17.60;;;22.50;99.90;;;;;;6190860;23;20047;-92
2022/10/18 13:03:57;;;;;;;20.27;18.58;;;22.40;99.90;;;;;;6209068;23;20025;-93
2022/10/18 13:06:45;;;;;;;19.90;18.27;;;22.30;99.90;;;;;;6190172;23;20005;-92
2022/10/18 13:09:20;;;;;;;19.13;17.77;;;22.30;99.90;;;;;;6196971;23;20013;-93
2022/10/18 13:11:47;;;;;;;18.38;17.08;;;22.30;99.90;;;;;;6190798;23;20015;-94
2022/10/18 13:14:36;;;;;;;19.58;18.05;;;22.50;99.90;;;;;;6219896;23;20024;-92
2022/10/18 13:17:11;;;;;;;19.08;17.70;;;22.40;99.90;;;;;;6173164;23;20044;-93
2022/10/18 13:36:16;;;;;;;19.95;18.55;;;22.10;99.90;;;;;;6245383;22;20252;-92
2022/10/18 13:38:54;;;;;;;19.63;18.33;;;22.10;99.90;;;;;;6196774;23;20008;-93
2022/10/18 13:41:49;;;;;;;18.83;17.52;;;22.20;99.90;;;;;;6195451;22;20126;-92
2022/10/18 13:44:21;;;;;;;;;;;22.20;99.90;;;;;;6196637;23;20019;-93
2022/10/18 13:47:03;;;;;;;19.45;18.10;;;22.10;99.90;;;;;;6196417;23;19911;-92
2022/10/18 13:49:39;;;;;;;19.17;18.08;;;22.00;99.90;;;;;;6200169;23;20004;-93
2022/10/18 13:53:02;;;;;;;20.30;19.15;;;21.90;99.90;;;;;;6207235;23;20054;-93
2022/10/18 13:55:52;;;;;;;20.17;18.98;;;21.80;99.90;;;;;;6172471;23;20024;-93
2022/10/18 13:58:30;;;;;;;20.35;19.15;;;21.80;99.90;;;;;;6196618;23;20430;-93
2022/10/18 14:01:32;;;;;;;20.80;19.55;;;21.90;99.90;;;;;;6195923;23;20170;-93
2022/10/18 14:04:15;;;;;;;20.70;19.33;;;21.90;99.90;;;;;;6106287;23;20046;-92
2022/10/18 14:06:46;;;;;;;20.63;19.13;;;21.80;99.90;;;;;;6156387;23;20452;-92
2022/10/18 14:09:52;;;;;;;20.75;19.45;;;21.80;99.90;;;;;;6155304;23;20009;-92
2022/10/18 14:12:27;;;;;;;;;;;21.80;99.90;;;;;;6132350;23;20033;-92
2022/10/18 14:15:19;;;;;;;20.40;19.10;;;21.80;99.90;;;;;;6130757;23;19905;-92
2022/10/18 14:18:19;;;;;;;20.45;19.15;;;21.70;99.90;;;;;;6157205;23;20014;-92
2022/10/18 14:20:55;;;;;;;20.05;18.85;;;21.70;99.90;;;;;;6098598;23;20017;-92
2022/10/18 14:23:43;;;;;;;20.70;19.08;;;21.60;99.90;;;;;;6050075;23;20046;-92
2022/10/18 14:26:21;;;;;;;20.48;19.17;;;21.60;99.90;;;;;;6050190;23;20038;-93
2022/10/18 14:29:06;;;;;;;20.30;19.17;;;21.50;99.90;;;;;;6049909;23;20011;-92
2022/10/18 14:31:33;;;;;;;20.50;19.40;;;21.50;99.90;;;;;;6051919;23;20006;-92
2022/10/18 14:34:00;;;;;;;20.73;19.33;;;21.50;99.90;;;;;;6049565;23;20006;-91
2022/10/18 14:36:35;;;;;;;20.88;19.30;;;21.40;99.90;;;;;;6030103;23;20018;-93
2022/10/18 14:39:06;;;;;;;20.23;19.02;;;21.40;99.90;;;;;;6048503;23;20013;-91
2022/10/18 14:41:47;;;;;;;19.90;18.67;;;21.30;99.90;;;;;;6109336;23;20100;-91
2022/10/18 14:44:14;;;;;;;20.48;19.27;;;21.30;99.90;;;;;;6108653;23;20029;-92
2022/10/18 14:47:01;;;;;;;20.05;18.95;;;21.30;99.90;;;;;;6108795;23;20006;-91
2022/10/18 14:49:28;;;;;;;20.15;18.85;;;21.20;99.90;;;;;;6107283;23;20018;-92
2022/10/18 14:51:59;;;;;;;21.13;19.63;;;21.10;99.90;;;;;;6107165;23;20466;-91
2022/10/18 14:54:35;;;;;;;21.48;20.00;;;21.10;99.90;;;;;;6107275;23;20001;-92
2022/10/18 14:57:04;;;;;;;21.23;19.83;;;21.10;99.90;;;;;;6135184;23;20008;-91
2022/10/18 14:59:50;;;;;;;21.88;20.50;;;21.10;99.90;;;;;;6168653;23;20434;-91
2022/10/18 15:02:23;;;;;;;21.42;20.02;;;21.10;99.90;;;;;;6167340;23;20057;-91
2022/10/18 15:04:59;;;;;;;21.48;20.13;;;20.90;99.90;;;;;;6191684;23;20005;-91
2022/10/18 15:07:30;;;;;;;20.83;19.48;;;20.80;99.90;;;;;;6177768;23;20079;-92
2022/10/18 15:10:00;;;;;;;22.80;21.25;;;20.80;99.90;;;;;;6191978;23;20001;-92
2022/10/18 15:12:28;;;;;;;20.77;19.50;;;20.80;99.90;;;;;;6191725;23;20015;-91
2022/10/18 15:14:55;;;;;;;21.13;19.75;;;20.80;99.90;;;;;;6191436;23;20009;-92
2022/10/18 15:17:28;;;;;;;20.42;19.17;;;20.70;99.90;;;;;;6216715;23;20008;-92
2022/10/18 15:20:04;;;;;;;20.63;19.33;;;20.70;99.90;;;;;;6218365;23;20090;-90
2022/10/18 15:22:32;;;;;;;20.45;19.15;;;20.60;99.90;;;;;;6225625;23;20016;-92
2022/10/18 15:25:05;;;;;;;20.63;19.38;;;20.50;99.90;;;;;;6192183;23;20008;-92
2022/10/18 15:27:36;;;;;;;19.95;18.77;;;20.50;99.90;;;;;;6217218;23;20008;-91
2022/10/18 15:30:23;;;;;;;19.52;18.23;;;20.30;99.90;;;;;;6220376;23;20005;-91
2022/10/18 15:32:59;;;;;;;19.73;18.23;;;20.30;99.90;;;;;;6221374;23;20008;-91
2022/10/18 15:35:43;;;;;;;19.33;17.83;;;20.20;99.90;;;;;;6192805;23;20091;-93
2022/10/18 15:38:23;;;;;;;18.92;17.38;;;20.10;99.90;;;;;;6217027;23;20008;-91
2022/10/18 15:40:51;;;;;;;18.65;17.20;;;20.00;99.90;;;;;;6191579;23;20008;-91
2022/10/18 15:43:26;;;;;;;18.42;17.13;;;20.00;99.90;;;;;;6216888;23;20016;-91
2022/10/18 15:46:15;;;;;;;18.52;17.15;;;19.90;99.90;;;;;;6216445;23;20441;-92
2022/10/18 15:48:42;;;;;;;18.95;17.02;;;19.80;99.90;;;;;;6189320;23;20035;-91
2022/10/18 15:51:46;;;;;;;18.70;17.30;;;19.70;99.90;;;;;;6216677;23;20012;-91
2022/10/18 15:54:31;;;;;;;18.53;17.23;;;19.60;99.90;;;;;;6146625;23;20012;-92
2022/10/18 15:57:05;;;;;;;18.77;17.27;;;19.50;99.90;;;;;;6191559;23;20012;-91
2022/10/18 15:59:32;;;;;;;;;;;19.40;99.90;;;;;;6192443;23;20435;-91
2022/10/18 16:01:59;;;;;;;19.55;17.92;;;19.40;99.90;;;;;;6217203;23;19908;-91
2022/10/18 16:04:29;;;;;;;21.42;19.30;;;19.30;99.90;;;;;;6190903;23;20458;-91
2022/10/18 16:06:57;;;;;;;21.00;19.23;;;19.20;99.90;;;;;;6219427;23;20011;-92
2022/10/18 16:09:28;;;;;;;20.95;18.90;;;19.20;99.90;;;;;;6220884;23;20004;-92
2022/10/18 16:11:56;;;;;;;22.15;20.02;;;19.10;99.90;;;;;;6221154;23;20007;-91
2022/10/18 16:14:25;;;;;;;22.80;20.50;;;19.00;99.90;;;;;;6221164;23;20004;-91
2022/10/18 16:17:04;;;;;;;23.33;21.02;;;19.00;99.90;;;;;;6221415;23;20445;-94
2022/10/18 16:19:32;;;;;;;26.70;21.30;;;18.90;99.90;;;;;;6196087;23;20012;-93
2022/10/18 16:22:00;;;;;;;27.63;21.98;;;18.90;99.90;;;;;;6221057;23;20035;-90
2022/10/18 16:24:26;;;;;;;25.45;21.63;;;18.80;99.90;;;;;;6221320;23;20004;-91
2022/10/18 16:26:53;;;;;;;27.00;21.58;;;18.80;99.90;;;;;;6196144;23;20430;-93
2022/10/18 16:29:27;;;;;;;33.72;24.38;;;18.70;99.90;;;;;;6195958;23;20103;-91
2022/10/18 16:31:56;;;;;;;27.23;21.60;;;18.70;99.90;;;;;;6195888;23;20015;-91
2022/10/18 16:34:28;;;;;;;32.45;22.08;;;18.70;99.90;;;;;;6234798;23;20008;-92
2022/10/18 16:36:55;;;;;;;30.52;22.00;;;18.60;99.90;;;;;;6234131;23;20004;-91
2022/10/18 16:39:23;;;;;;;36.35;24.05;;;18.60;99.90;;;;;;6172904;23;20009;-91
2022/10/18 16:41:50;;;;;;;39.50;23.10;;;18.50;99.90;;;;;;6197971;23;20076;-91
2022/10/18 16:44:18;;;;;;;48.58;25.17;;;18.50;99.90;;;;;;6197776;23;20059;-91
2022/10/18 16:46:45;;;;;;;41.67;25.23;;;18.40;99.90;;;;;;6198314;23;20024;-92
2022/10/18 16:49:22;;;;;;;50.10;27.08;;;18.40;99.90;;;;;;6195272;23;20012;-90
2022/10/18 16:51:51;;;;;;;47.22;26.30;;;18.40;99.90;;;;;;6194764;23;20423;-90
2022/10/18 16:54:18;;;;;;;46.47;28.42;;;18.30;99.90;;;;;;6187371;23;20005;-91
2022/10/18 16:56:46;;;;;;;51.83;29.95;;;18.30;99.90;;;;;;6184638;23;20013;-91
2022/10/18 16:59:32;;;;;;;47.28;28.52;;;18.20;99.90;;;;;;6184783;23;20005;-90
2022/10/18 17:02:04;;;;;;;54.58;30.20;;;18.20;99.90;;;;;;6184749;23;20020;-91
2022/10/18 17:04:30;;;;;;;57.90;32.20;;;18.20;99.90;;;;;;6184775;23;20005;-92
2022/10/18 17:06:57;;;;;;;58.38;32.03;;;18.20;99.90;;;;;;6184510;23;20005;-91
2022/10/18 17:09:25;;;;;;;61.78;34.08;;;18.20;99.90;;;;;;6185128;23;20009;-92
2022/10/18 17:11:51;;;;;;;58.67;32.28;;;18.20;99.90;;;;;;6185449;23;20457;-92
2022/10/18 17:14:18;;;;;;;65.47;34.95;;;18.10;99.90;;;;;;6186937;23;20013;-93
2022/10/18 17:16:45;;;;;;;69.80;35.00;;;18.10;99.90;;;;;;6200327;23;20001;-93
2022/10/18 17:19:13;;;;;;;66.63;35.88;;;18.10;99.90;;;;;;6190631;23;20343;-92
2022/10/18 17:21:40;;;;;;;67.65;36.90;;;18.10;99.90;;;;;;6190870;23;20020;-92
2022/10/18 17:24:07;;;;;;;64.90;37.28;;;18.10;99.90;;;;;;6215710;23;20434;-91
2022/10/18 17:26:34;;;;;;;73.78;37.05;;;18.00;99.90;;;;;;6215561;23;20004;-91
2022/10/18 17:29:04;;;;;;;81.43;40.47;;;18.00;99.90;;;;;;6215529;23;20016;-92
2022/10/18 17:31:31;;;;;;;75.88;41.15;;;18.00;99.90;;;;;;6190607;23;20009;-92
2022/10/18 17:34:00;;;;;;;86.82;41.50;;;18.00;99.90;;;;;;6215351;23;20008;-91
2022/10/18 17:36:28;;;;;;;78.60;41.55;;;17.90;99.90;;;;;;6190225;23;20032;-91
2022/10/18 17:38:55;;;;;;;84.07;42.95;;;17.90;99.90;;;;;;6190161;23;20005;-90
2022/10/18 17:41:22;;;;;;;84.43;43.97;;;17.90;99.90;;;;;;6190788;23;20035;-93
2022/10/18 17:43:55;;;;;;;85.20;45.42;;;17.90;99.90;;;;;;6217442;23;20018;-91
2022/10/18 17:46:23;;;;;;;83.65;44.80;;;17.90;99.90;;;;;;6217541;23;20036;-92
2022/10/18 17:48:49;;;;;;;93.88;44.75;;;17.90;99.90;;;;;;6216107;23;20005;-93
2022/10/18 17:51:19;;;;;;;90.57;45.85;;;17.90;99.90;;;;;;6192078;23;20008;-94
2022/10/18 17:53:46;;;;;;;91.50;45.45;;;17.80;99.90;;;;;;6217155;23;20139;-92
2022/10/18 17:56:16;;;;;;;98.85;46.55;;;17.80;99.90;;;;;;6217615;23;20008;-94
2022/10/18 17:58:44;;;;;;;92.90;47.28;;;17.80;99.90;;;;;;6218014;23;20019;-91
2022/10/18 18:01:23;;;;;;;97.47;47.30;;;17.80;99.90;;;;;;6217064;23;20005;-92
2022/10/18 18:04:00;;;;;;;104.32;49.83;;;17.80;99.90;;;;;;6217897;23;20032;-92
2022/10/18 18:06:37;;;;;;;101.85;49.00;;;17.70;99.90;;;;;;6192364;23;20039;-91
2022/10/18 18:09:16;;;;;;;105.20;49.85;;;17.70;99.90;;;;;;6192430;23;20024;-91
2022/10/18 18:11:47;;;;;;;106.18;50.25;;;17.70;99.90;;;;;;6193058;23;20398;-91
2022/10/18 18:14:17;;;;;;;105.90;51.53;;;17.70;99.90;;;;;;6218601;22;20088;-92
2022/10/18 18:16:47;;;;;;;102.10;51.60;;;17.70;99.90;;;;;;6202256;23;20019;-95
2022/10/18 18:19:29;;;;;;;108.25;50.88;;;17.60;99.90;;;;;;6197915;23;20004;-92
2022/10/18 18:21:57;;;;;;;115.63;55.75;;;17.60;99.90;;;;;;6197659;23;20020;-94
2022/10/18 18:24:28;;;;;;;113.57;52.70;;;17.60;99.90;;;;;;6199189;22;20004;-93
2022/10/18 18:26:56;;;;;;;114.90;55.40;;;17.60;99.90;;;;;;6196703;23;20019;-93
2022/10/18 18:29:29;;;;;;;119.43;54.88;;;17.60;99.90;;;;;;6198639;23;20000;-92
2022/10/18 18:32:03;;;;;;;116.50;53.95;;;17.50;99.90;;;;;;6198144;23;20004;-92
2022/10/18 18:35:02;;;;;;;114.05;53.38;;;17.50;99.90;;;;;;6199920;23;20008;-94
2022/10/18 18:37:32;;;;;;;115.65;52.65;;;17.50;99.90;;;;;;6107604;23;20122;-93
2022/10/18 18:40:04;;;;;;;121.72;53.58;;;17.50;99.90;;;;;;6156633;23;20039;-93
2022/10/18 18:42:31;;;;;;;121.38;55.60;;;17.50;99.90;;;;;;6156683;23;20021;-92
2022/10/18 18:54:09;;;;;;;118.70;53.97;;;17.40;99.90;;;;;;6251381;22;20028;-93
2022/10/18 18:56:57;;;;;;;122.05;55.50;;;17.40;99.90;;;;;;6203248;23;20015;-93
2022/10/18 18:59:36;;;;;;;127.72;58.15;;;17.30;99.90;;;;;;6198958;23;20381;-93
2022/10/18 21:33:39;;;;;;;223.27;72.80;;;16.40;99.90;;;;;;6217015;23;20032;-92
2022/10/18 21:39:30;;;;;;;207.13;74.00;;;16.40;99.90;;;;;;6169728;23;20016;-92
2022/10/18 21:42:03;;;;;;;212.63;74.03;;;16.30;99.90;;;;;;6167277;23;20017;-93
2022/10/18 21:44:33;;;;;;;209.20;72.93;;;16.30;99.90;;;;;;6166245;23;20005;-92
2022/10/18 21:46:59;;;;;;;227.27;75.43;;;16.30;99.90;;;;;;6166215;23;20015;-93
2022/10/18 21:49:28;;;;;;;207.05;71.45;;;16.30;99.90;;;;;;6167261;23;20055;-94
2022/10/18 21:51:55;;;;;;;201.90;71.15;;;16.20;99.90;;;;;;6166156;23;20000;-92
2022/10/18 21:54:25;;;;;;;211.18;74.15;;;16.30;99.90;;;;;;6164512;23;20012;-94
2022/10/18 21:56:52;;;;;;;221.55;73.70;;;16.20;99.90;;;;;;6166434;23;20004;-92
2022/10/18 21:59:18;;;;;;;200.55;71.85;;;16.20;99.90;;;;;;6165536;23;20098;-93
2022/10/18 22:01:48;;;;;;;200.85;71.30;;;16.20;99.90;;;;;;6166426;23;20103;-93
2022/10/18 22:04:46;;;;;;;203.43;72.97;;;16.20;99.90;;;;;;6167050;23;20023;-92
2022/10/18 22:07:13;;;;;;;209.48;72.30;;;16.10;99.90;;;;;;6168984;23;20034;-94
2022/10/18 22:10:01;;;;;;;206.30;73.30;;;16.10;99.90;;;;;;6166516;23;20032;-93
2022/10/18 22:12:48;;;;;;;218.93;74.17;;;16.10;99.90;;;;;;6196480;23;20080;-94
2022/10/18 23:00:52;;;;;;;158.10;59.80;;;15.70;99.90;;;;;;6246975;22;20020;-93
2022/10/18 23:03:34;;;;;;;160.57;61.25;;;15.60;99.90;;;;;;6196265;23;20020;-94
2022/10/18 23:07:07;;;;;;;;;;;;;;;;;;;;;
2022/10/18 23:10:02;;;;;;;142.00;56.58;;;15.50;99.90;;;;;;6215454;23;20047;-94
